sensor_id;sensor_type;location;lat;lon;timestamp;P1;durP1;ratioP1;P2;durP2;ratioP2
3066;SDS011;1544;48.834;9.194;2023-12-20T00:01:33;0.80;;;0.80;;
3066;SDS011;1544;48.834;9.194;2023-12-20T00:04:09;0.90;;;0.90;;
3066;SDS011;1544;48.834;9.194;2023-12-20T00:06:45;0.80;;;0.80;;
3066;SDS011;1544;48.834;9.194;2023-12-20T00:09:22;0.73;;;0.73;;
3066;SDS011;1544;48.834;9.194;2023-12-20T00:11:57;0.70;;;0.70;;
3066;SDS011;1544;48.834;9.194;2023-12-20T00:14:33;1.10;;;1.00;;
3066;SDS011;1544;48.834;9.194;2023-12-20T00:17:09;1.00;;;1.00;;
3066;SDS011;1544;48.834;9.194;2023-12-20T00:19:45;0.80;;;0.80;;
3066;SDS011;1544;48.834;9.194;2023-12-20T00:22:21;1.13;;;0.70;;
3066;SDS011;1544;48.834;9.194;2023-12-20T00:24:57;1.00;;;0.90;;
3066;SDS011;1544;48.834;9.194;2023-12-20T00:27:33;0.80;;;0.80;;
3066;SDS011;1544;48.834;9.194;2023-12-20T00:30:10;1.20;;;1.10;;
3066;SDS011;1544;48.834;9.194;2023-12-20T00:32:47;1.43;;;0.90;;
3066;SDS011;1544;48.834;9.194;2023-12-20T00:35:23;1.03;;;0.97;;
3066;SDS011;1544;48.834;9.194;2023-12-20T00:37:59;0.90;;;0.90;;
3066;SDS011;1544;48.834;9.194;2023-12-20T00:40:35;1.00;;;0.90;;
3066;SDS011;1544;48.834;9.194;2023-12-20T00:43:11;1.00;;;0.90;;
3066;SDS011;1544;48.834;9.194;2023-12-20T00:45:47;0.80;;;0.80;;
3066;SDS011;1544;48.834;9.194;2023-12-20T00:48:23;0.80;;;0.80;;
3066;SDS011;1544;48.834;9.194;2023-12-20T00:50:59;1.00;;;0.90;;
3066;SDS011;1544;48.834;9.194;2023-12-20T00:53:35;0.90;;;0.90;;
3066;SDS011;1544;48.834;9.194;2023-12-20T00:56:11;1.23;;;0.87;;
3066;SDS011;1544;48.834;9.194;2023-12-20T00:58:47;1.13;;;0.87;;
3066;SDS011;1544;48.834;9.194;2023-12-20T01:01:23;1.20;;;1.10;;
3066;SDS011;1544;48.834;9.194;2023-12-20T01:03:59;1.47;;;1.37;;
3066;SDS011;1544;48.834;9.194;2023-12-20T01:06:35;1.53;;;1.43;;
3066;SDS011;1544;48.834;9.194;2023-12-20T01:09:11;1.10;;;1.00;;
3066;SDS011;1544;48.834;9.194;2023-12-20T01:11:47;1.47;;;1.00;;
3066;SDS011;1544;48.834;9.194;2023-12-20T01:14:23;1.70;;;1.60;;
3066;SDS011;1544;48.834;9.194;2023-12-20T01:16:59;1.87;;;1.50;;
3066;SDS011;1544;48.834;9.194;2023-12-20T01:19:37;2.03;;;1.93;;
3066;SDS011;1544;48.834;9.194;2023-12-20T01:22:13;2.00;;;1.77;;
3066;SDS011;1544;48.834;9.194;2023-12-20T01:24:49;1.80;;;1.70;;
3066;SDS011;1544;48.834;9.194;2023-12-20T01:27:25;1.63;;;1.53;;
3066;SDS011;1544;48.834;9.194;2023-12-20T01:30:00;1.70;;;1.40;;
3066;SDS011;1544;48.834;9.194;2023-12-20T01:32:36;2.80;;;1.50;;
3066;SDS011;1544;48.834;9.194;2023-12-20T01:35:13;1.97;;;1.30;;
3066;SDS011;1544;48.834;9.194;2023-12-20T01:37:49;1.80;;;1.30;;
3066;SDS011;1544;48.834;9.194;2023-12-20T01:40:25;1.30;;;1.20;;
3066;SDS011;1544;48.834;9.194;2023-12-20T01:43:02;1.40;;;1.30;;
3066;SDS011;1544;48.834;9.194;2023-12-20T01:45:43;2.10;;;1.40;;
3066;SDS011;1544;48.834;9.194;2023-12-20T01:48:19;3.73;;;1.60;;
3066;SDS011;1544;48.834;9.194;2023-12-20T01:50:56;2.00;;;1.70;;
3066;SDS011;1544;48.834;9.194;2023-12-20T01:53:32;2.00;;;1.40;;
3066;SDS011;1544;48.834;9.194;2023-12-20T01:56:08;3.33;;;1.57;;
3066;SDS011;1544;48.834;9.194;2023-12-20T01:58:45;1.50;;;1.40;;
3066;SDS011;1544;48.834;9.194;2023-12-20T02:01:22;1.60;;;1.50;;
3066;SDS011;1544;48.834;9.194;2023-12-20T02:03:59;1.73;;;1.63;;
3066;SDS011;1544;48.834;9.194;2023-12-20T02:06:36;2.00;;;1.70;;
3066;SDS011;1544;48.834;9.194;2023-12-20T02:09:15;1.40;;;1.30;;
3066;SDS011;1544;48.834;9.194;2023-12-20T02:11:52;1.60;;;1.50;;
3066;SDS011;1544;48.834;9.194;2023-12-20T02:14:28;1.53;;;1.43;;
3066;SDS011;1544;48.834;9.194;2023-12-20T02:17:04;1.50;;;1.40;;
3066;SDS011;1544;48.834;9.194;2023-12-20T02:19:40;1.87;;;1.77;;
3066;SDS011;1544;48.834;9.194;2023-12-20T02:22:16;1.43;;;1.33;;
3066;SDS011;1544;48.834;9.194;2023-12-20T02:24:52;1.70;;;1.60;;
3066;SDS011;1544;48.834;9.194;2023-12-20T02:27:28;2.60;;;1.40;;
3066;SDS011;1544;48.834;9.194;2023-12-20T02:30:05;1.50;;;1.40;;
3066;SDS011;1544;48.834;9.194;2023-12-20T02:32:41;2.00;;;1.90;;
3066;SDS011;1544;48.834;9.194;2023-12-20T02:35:17;1.40;;;1.30;;
3066;SDS011;1544;48.834;9.194;2023-12-20T02:37:54;2.03;;;1.73;;
3066;SDS011;1544;48.834;9.194;2023-12-20T02:40:29;1.50;;;1.40;;
3066;SDS011;1544;48.834;9.194;2023-12-20T02:43:05;1.67;;;1.57;;
3066;SDS011;1544;48.834;9.194;2023-12-20T02:45:41;1.83;;;1.63;;
3066;SDS011;1544;48.834;9.194;2023-12-20T02:48:17;1.87;;;1.77;;
3066;SDS011;1544;48.834;9.194;2023-12-20T02:50:54;1.70;;;1.60;;
3066;SDS011;1544;48.834;9.194;2023-12-20T02:53:30;2.50;;;2.30;;
3066;SDS011;1544;48.834;9.194;2023-12-20T02:56:06;2.10;;;1.80;;
3066;SDS011;1544;48.834;9.194;2023-12-20T02:58:42;1.47;;;1.37;;
3066;SDS011;1544;48.834;9.194;2023-12-20T03:01:18;1.30;;;1.20;;
3066;SDS011;1544;48.834;9.194;2023-12-20T03:03:54;1.23;;;1.13;;
3066;SDS011;1544;48.834;9.194;2023-12-20T03:06:30;1.30;;;1.20;;
3066;SDS011;1544;48.834;9.194;2023-12-20T03:09:06;0.60;;;0.60;;
3066;SDS011;1544;48.834;9.194;2023-12-20T03:11:42;1.77;;;0.50;;
3066;SDS011;1544;48.834;9.194;2023-12-20T03:14:18;2.70;;;0.50;;
3066;SDS011;1544;48.834;9.194;2023-12-20T03:16:54;0.30;;;0.30;;
3066;SDS011;1544;48.834;9.194;2023-12-20T03:19:32;0.30;;;0.30;;
3066;SDS011;1544;48.834;9.194;2023-12-20T03:22:08;0.40;;;0.40;;
3066;SDS011;1544;48.834;9.194;2023-12-20T03:24:44;0.40;;;0.37;;
3066;SDS011;1544;48.834;9.194;2023-12-20T03:27:20;0.40;;;0.30;;
3066;SDS011;1544;48.834;9.194;2023-12-20T03:29:56;0.47;;;0.47;;
3066;SDS011;1544;48.834;9.194;2023-12-20T03:32:32;0.40;;;0.40;;
3066;SDS011;1544;48.834;9.194;2023-12-20T03:35:08;0.30;;;0.30;;
3066;SDS011;1544;48.834;9.194;2023-12-20T03:37:44;0.77;;;0.30;;
3066;SDS011;1544;48.834;9.194;2023-12-20T03:40:20;0.70;;;0.30;;
3066;SDS011;1544;48.834;9.194;2023-12-20T03:42:58;0.30;;;0.30;;
3066;SDS011;1544;48.834;9.194;2023-12-20T03:45:34;0.30;;;0.30;;
3066;SDS011;1544;48.834;9.194;2023-12-20T03:48:10;0.30;;;0.30;;
3066;SDS011;1544;48.834;9.194;2023-12-20T03:50:46;0.30;;;0.30;;
3066;SDS011;1544;48.834;9.194;2023-12-20T03:53:22;0.40;;;0.30;;
3066;SDS011;1544;48.834;9.194;2023-12-20T03:55:58;0.30;;;0.20;;
3066;SDS011;1544;48.834;9.194;2023-12-20T03:58:34;0.40;;;0.40;;
3066;SDS011;1544;48.834;9.194;2023-12-20T04:01:10;1.90;;;0.40;;
3066;SDS011;1544;48.834;9.194;2023-12-20T04:03:49;0.30;;;0.30;;
3066;SDS011;1544;48.834;9.194;2023-12-20T04:06:25;0.50;;;0.33;;
3066;SDS011;1544;48.834;9.194;2023-12-20T04:09:01;0.40;;;0.40;;
3066;SDS011;1544;48.834;9.194;2023-12-20T04:11:37;0.40;;;0.30;;
3066;SDS011;1544;48.834;9.194;2023-12-20T04:14:13;0.30;;;0.30;;
3066;SDS011;1544;48.834;9.194;2023-12-20T04:16:49;0.30;;;0.30;;
3066;SDS011;1544;48.834;9.194;2023-12-20T04:19:25;0.30;;;0.30;;
3066;SDS011;1544;48.834;9.194;2023-12-20T04:22:01;0.40;;;0.30;;
3066;SDS011;1544;48.834;9.194;2023-12-20T04:24:37;0.40;;;0.40;;
3066;SDS011;1544;48.834;9.194;2023-12-20T04:27:13;0.40;;;0.40;;
3066;SDS011;1544;48.834;9.194;2023-12-20T04:29:49;0.50;;;0.50;;
3066;SDS011;1544;48.834;9.194;2023-12-20T04:32:25;0.50;;;0.40;;
3066;SDS011;1544;48.834;9.194;2023-12-20T04:35:01;0.30;;;0.30;;
3066;SDS011;1544;48.834;9.194;2023-12-20T04:37:37;0.50;;;0.40;;
3066;SDS011;1544;48.834;9.194;2023-12-20T04:40:13;0.30;;;0.30;;
3066;SDS011;1544;48.834;9.194;2023-12-20T04:42:49;0.40;;;0.40;;
3066;SDS011;1544;48.834;9.194;2023-12-20T04:45:25;0.40;;;0.40;;
3066;SDS011;1544;48.834;9.194;2023-12-20T04:48:01;0.40;;;0.40;;
3066;SDS011;1544;48.834;9.194;2023-12-20T04:50:38;0.40;;;0.40;;
3066;SDS011;1544;48.834;9.194;2023-12-20T04:53:14;0.50;;;0.30;;
3066;SDS011;1544;48.834;9.194;2023-12-20T04:55:50;0.30;;;0.30;;
3066;SDS011;1544;48.834;9.194;2023-12-20T04:58:25;0.30;;;0.30;;
3066;SDS011;1544;48.834;9.194;2023-12-20T05:01:03;0.40;;;0.33;;
3066;SDS011;1544;48.834;9.194;2023-12-20T05:03:41;0.50;;;0.50;;
3066;SDS011;1544;48.834;9.194;2023-12-20T05:06:17;0.40;;;0.40;;
3066;SDS011;1544;48.834;9.194;2023-12-20T05:08:53;0.30;;;0.30;;
3066;SDS011;1544;48.834;9.194;2023-12-20T05:11:29;0.47;;;0.40;;
3066;SDS011;1544;48.834;9.194;2023-12-20T05:14:05;0.57;;;0.40;;
3066;SDS011;1544;48.834;9.194;2023-12-20T05:16:41;0.30;;;0.30;;
3066;SDS011;1544;48.834;9.194;2023-12-20T05:19:17;1.27;;;0.50;;
3066;SDS011;1544;48.834;9.194;2023-12-20T05:21:53;0.60;;;0.43;;
3066;SDS011;1544;48.834;9.194;2023-12-20T05:24:29;0.40;;;0.40;;
3066;SDS011;1544;48.834;9.194;2023-12-20T05:27:05;0.43;;;0.40;;
3066;SDS011;1544;48.834;9.194;2023-12-20T05:29:41;0.50;;;0.50;;
3066;SDS011;1544;48.834;9.194;2023-12-20T05:32:17;0.40;;;0.40;;
3066;SDS011;1544;48.834;9.194;2023-12-20T05:34:53;0.50;;;0.40;;
3066;SDS011;1544;48.834;9.194;2023-12-20T05:37:29;0.80;;;0.37;;
3066;SDS011;1544;48.834;9.194;2023-12-20T05:40:05;0.40;;;0.40;;
3066;SDS011;1544;48.834;9.194;2023-12-20T05:42:42;0.70;;;0.50;;
3066;SDS011;1544;48.834;9.194;2023-12-20T05:45:18;0.50;;;0.50;;
3066;SDS011;1544;48.834;9.194;2023-12-20T05:47:54;0.50;;;0.40;;
3066;SDS011;1544;48.834;9.194;2023-12-20T05:50:30;0.40;;;0.40;;
3066;SDS011;1544;48.834;9.194;2023-12-20T05:53:06;0.60;;;0.60;;
3066;SDS011;1544;48.834;9.194;2023-12-20T05:55:43;0.43;;;0.40;;
3066;SDS011;1544;48.834;9.194;2023-12-20T05:58:19;0.50;;;0.50;;
3066;SDS011;1544;48.834;9.194;2023-12-20T06:00:54;0.70;;;0.70;;
3066;SDS011;1544;48.834;9.194;2023-12-20T06:03:31;1.30;;;0.70;;
3066;SDS011;1544;48.834;9.194;2023-12-20T06:06:07;1.10;;;1.00;;
3066;SDS011;1544;48.834;9.194;2023-12-20T06:08:51;2.07;;;1.00;;
3066;SDS011;1544;48.834;9.194;2023-12-20T06:11:27;0.80;;;0.80;;
3066;SDS011;1544;48.834;9.194;2023-12-20T06:14:03;1.00;;;0.60;;
3066;SDS011;1544;48.834;9.194;2023-12-20T06:16:39;0.53;;;0.53;;
3066;SDS011;1544;48.834;9.194;2023-12-20T06:19:15;0.50;;;0.50;;
3066;SDS011;1544;48.834;9.194;2023-12-20T06:21:51;0.90;;;0.57;;
3066;SDS011;1544;48.834;9.194;2023-12-20T06:24:27;0.60;;;0.40;;
3066;SDS011;1544;48.834;9.194;2023-12-20T06:27:03;1.00;;;0.60;;
3066;SDS011;1544;48.834;9.194;2023-12-20T06:29:39;1.87;;;0.50;;
3066;SDS011;1544;48.834;9.194;2023-12-20T06:32:16;0.60;;;0.60;;
3066;SDS011;1544;48.834;9.194;2023-12-20T06:34:52;1.23;;;0.60;;
3066;SDS011;1544;48.834;9.194;2023-12-20T06:37:28;0.90;;;0.60;;
3066;SDS011;1544;48.834;9.194;2023-12-20T06:40:04;0.60;;;0.60;;
3066;SDS011;1544;48.834;9.194;2023-12-20T06:42:46;0.60;;;0.60;;
3066;SDS011;1544;48.834;9.194;2023-12-20T06:45:39;0.93;;;0.70;;
3066;SDS011;1544;48.834;9.194;2023-12-20T06:48:16;1.27;;;0.70;;
3066;SDS011;1544;48.834;9.194;2023-12-20T06:50:53;0.80;;;0.80;;
3066;SDS011;1544;48.834;9.194;2023-12-20T06:53:30;0.80;;;0.80;;
3066;SDS011;1544;48.834;9.194;2023-12-20T06:56:06;1.80;;;0.97;;
3066;SDS011;1544;48.834;9.194;2023-12-20T06:58:42;0.90;;;0.90;;
3066;SDS011;1544;48.834;9.194;2023-12-20T07:01:19;1.10;;;1.00;;
3066;SDS011;1544;48.834;9.194;2023-12-20T07:03:55;1.13;;;1.03;;
3066;SDS011;1544;48.834;9.194;2023-12-20T07:06:31;1.50;;;1.40;;
3066;SDS011;1544;48.834;9.194;2023-12-20T07:09:07;1.60;;;1.50;;
3066;SDS011;1544;48.834;9.194;2023-12-20T07:11:43;1.70;;;1.60;;
3066;SDS011;1544;48.834;9.194;2023-12-20T07:14:19;1.60;;;1.50;;
3066;SDS011;1544;48.834;9.194;2023-12-20T07:16:55;2.33;;;2.13;;
3066;SDS011;1544;48.834;9.194;2023-12-20T07:19:31;2.30;;;2.20;;
3066;SDS011;1544;48.834;9.194;2023-12-20T07:22:08;1.80;;;1.70;;
3066;SDS011;1544;48.834;9.194;2023-12-20T07:24:44;2.20;;;2.10;;
3066;SDS011;1544;48.834;9.194;2023-12-20T07:27:21;2.00;;;1.90;;
3066;SDS011;1544;48.834;9.194;2023-12-20T07:29:57;2.00;;;1.90;;
3066;SDS011;1544;48.834;9.194;2023-12-20T07:32:33;1.90;;;1.80;;
3066;SDS011;1544;48.834;9.194;2023-12-20T07:35:09;3.43;;;2.37;;
3066;SDS011;1544;48.834;9.194;2023-12-20T07:37:45;1.80;;;1.70;;
3066;SDS011;1544;48.834;9.194;2023-12-20T07:40:22;2.00;;;1.90;;
3066;SDS011;1544;48.834;9.194;2023-12-20T07:42:59;2.20;;;2.00;;
3066;SDS011;1544;48.834;9.194;2023-12-20T07:45:35;2.13;;;2.03;;
3066;SDS011;1544;48.834;9.194;2023-12-20T07:48:11;1.93;;;1.83;;
3066;SDS011;1544;48.834;9.194;2023-12-20T07:50:47;2.10;;;2.00;;
3066;SDS011;1544;48.834;9.194;2023-12-20T07:53:23;1.93;;;1.83;;
3066;SDS011;1544;48.834;9.194;2023-12-20T07:55:59;2.10;;;2.00;;
3066;SDS011;1544;48.834;9.194;2023-12-20T07:58:36;2.30;;;2.20;;
3066;SDS011;1544;48.834;9.194;2023-12-20T08:01:26;21.13;;;2.30;;
3066;SDS011;1544;48.834;9.194;2023-12-20T08:04:02;3.60;;;2.40;;
3066;SDS011;1544;48.834;9.194;2023-12-20T08:06:39;2.33;;;2.23;;
3066;SDS011;1544;48.834;9.194;2023-12-20T08:09:15;3.93;;;2.40;;
3066;SDS011;1544;48.834;9.194;2023-12-20T08:11:51;2.20;;;2.10;;
3066;SDS011;1544;48.834;9.194;2023-12-20T08:14:27;2.50;;;2.30;;
3066;SDS011;1544;48.834;9.194;2023-12-20T08:17:03;2.20;;;1.80;;
3066;SDS011;1544;48.834;9.194;2023-12-20T08:19:39;2.33;;;2.23;;
3066;SDS011;1544;48.834;9.194;2023-12-20T08:22:15;2.80;;;2.13;;
3066;SDS011;1544;48.834;9.194;2023-12-20T08:24:51;2.70;;;2.50;;
3066;SDS011;1544;48.834;9.194;2023-12-20T08:27:27;2.87;;;2.00;;
3066;SDS011;1544;48.834;9.194;2023-12-20T08:30:03;2.20;;;2.00;;
3066;SDS011;1544;48.834;9.194;2023-12-20T08:32:40;2.47;;;2.00;;
3066;SDS011;1544;48.834;9.194;2023-12-20T08:35:16;2.00;;;1.90;;
3066;SDS011;1544;48.834;9.194;2023-12-20T08:37:54;2.77;;;2.00;;
3066;SDS011;1544;48.834;9.194;2023-12-20T08:40:30;2.67;;;2.50;;
3066;SDS011;1544;48.834;9.194;2023-12-20T08:43:06;2.23;;;2.13;;
3066;SDS011;1544;48.834;9.194;2023-12-20T08:45:42;2.23;;;2.13;;
3066;SDS011;1544;48.834;9.194;2023-12-20T08:48:18;3.10;;;2.27;;
3066;SDS011;1544;48.834;9.194;2023-12-20T08:50:55;2.60;;;2.40;;
3066;SDS011;1544;48.834;9.194;2023-12-20T08:53:31;2.83;;;2.50;;
3066;SDS011;1544;48.834;9.194;2023-12-20T08:56:07;2.43;;;2.23;;
3066;SDS011;1544;48.834;9.194;2023-12-20T08:58:44;2.90;;;2.70;;
3066;SDS011;1544;48.834;9.194;2023-12-20T09:01:21;2.80;;;2.60;;
3066;SDS011;1544;48.834;9.194;2023-12-20T09:03:57;2.43;;;2.33;;
3066;SDS011;1544;48.834;9.194;2023-12-20T09:06:33;2.50;;;2.30;;
3066;SDS011;1544;48.834;9.194;2023-12-20T09:09:09;3.03;;;2.33;;
3066;SDS011;1544;48.834;9.194;2023-12-20T09:11:48;2.47;;;2.27;;
3066;SDS011;1544;48.834;9.194;2023-12-20T09:14:26;2.50;;;2.30;;
3066;SDS011;1544;48.834;9.194;2023-12-20T09:17:02;2.87;;;2.67;;
3066;SDS011;1544;48.834;9.194;2023-12-20T09:19:38;2.30;;;2.10;;
3066;SDS011;1544;48.834;9.194;2023-12-20T09:22:15;4.07;;;2.60;;
3066;SDS011;1544;48.834;9.194;2023-12-20T09:24:51;2.90;;;2.33;;
3066;SDS011;1544;48.834;9.194;2023-12-20T09:27:27;2.63;;;2.40;;
3066;SDS011;1544;48.834;9.194;2023-12-20T09:30:03;5.40;;;2.03;;
3066;SDS011;1544;48.834;9.194;2023-12-20T09:32:40;8.50;;;2.10;;
3066;SDS011;1544;48.834;9.194;2023-12-20T09:35:17;6.20;;;1.80;;
3066;SDS011;1544;48.834;9.194;2023-12-20T09:37:53;2.33;;;2.03;;
3066;SDS011;1544;48.834;9.194;2023-12-20T09:40:29;1.70;;;1.50;;
3066;SDS011;1544;48.834;9.194;2023-12-20T09:43:11;2.37;;;1.17;;
3066;SDS011;1544;48.834;9.194;2023-12-20T09:45:53;1.67;;;1.30;;
3066;SDS011;1544;48.834;9.194;2023-12-20T09:48:35;2.87;;;1.13;;
3066;SDS011;1544;48.834;9.194;2023-12-20T09:51:12;2.50;;;1.10;;
3066;SDS011;1544;48.834;9.194;2023-12-20T09:53:50;1.80;;;1.00;;
3066;SDS011;1544;48.834;9.194;2023-12-20T09:56:31;2.00;;;1.00;;
3066;SDS011;1544;48.834;9.194;2023-12-20T09:59:08;1.20;;;1.10;;
3066;SDS011;1544;48.834;9.194;2023-12-20T10:01:44;2.00;;;0.97;;
3066;SDS011;1544;48.834;9.194;2023-12-20T10:04:20;2.07;;;1.20;;
3066;SDS011;1544;48.834;9.194;2023-12-20T10:07:05;4.20;;;1.00;;
3066;SDS011;1544;48.834;9.194;2023-12-20T10:09:41;1.13;;;0.93;;
3066;SDS011;1544;48.834;9.194;2023-12-20T10:12:18;2.83;;;0.90;;
3066;SDS011;1544;48.834;9.194;2023-12-20T10:14:54;6.70;;;1.17;;
3066;SDS011;1544;48.834;9.194;2023-12-20T10:17:30;2.80;;;0.90;;
3066;SDS011;1544;48.834;9.194;2023-12-20T10:20:07;3.27;;;1.00;;
3066;SDS011;1544;48.834;9.194;2023-12-20T10:22:46;2.00;;;1.10;;
3066;SDS011;1544;48.834;9.194;2023-12-20T10:25:22;3.00;;;0.90;;
3066;SDS011;1544;48.834;9.194;2023-12-20T10:28:12;2.93;;;0.97;;
3066;SDS011;1544;48.834;9.194;2023-12-20T10:30:54;1.70;;;0.87;;
3066;SDS011;1544;48.834;9.194;2023-12-20T10:33:32;2.20;;;1.00;;
3066;SDS011;1544;48.834;9.194;2023-12-20T10:36:08;4.57;;;1.07;;
3066;SDS011;1544;48.834;9.194;2023-12-20T10:38:45;2.17;;;1.00;;
3066;SDS011;1544;48.834;9.194;2023-12-20T10:41:26;2.30;;;1.10;;
3066;SDS011;1544;48.834;9.194;2023-12-20T10:44:05;2.10;;;1.10;;
3066;SDS011;1544;48.834;9.194;2023-12-20T10:46:41;1.20;;;0.97;;
3066;SDS011;1544;48.834;9.194;2023-12-20T10:49:22;1.50;;;1.00;;
3066;SDS011;1544;48.834;9.194;2023-12-20T10:52:00;3.67;;;1.13;;
3066;SDS011;1544;48.834;9.194;2023-12-20T10:54:40;4.43;;;0.93;;
3066;SDS011;1544;48.834;9.194;2023-12-20T10:57:16;2.73;;;0.80;;
3066;SDS011;1544;48.834;9.194;2023-12-20T10:59:54;1.73;;;0.87;;
3066;SDS011;1544;48.834;9.194;2023-12-20T11:02:38;1.40;;;0.83;;
3066;SDS011;1544;48.834;9.194;2023-12-20T11:08:28;1.57;;;0.90;;
3066;SDS011;1544;48.834;9.194;2023-12-20T11:11:15;2.50;;;1.07;;
3066;SDS011;1544;48.834;9.194;2023-12-20T11:14:03;3.67;;;0.73;;
3066;SDS011;1544;48.834;9.194;2023-12-20T11:16:44;3.50;;;0.90;;
3066;SDS011;1544;48.834;9.194;2023-12-20T11:19:29;1.13;;;1.13;;
3066;SDS011;1544;48.834;9.194;2023-12-20T11:22:05;3.13;;;1.03;;
3066;SDS011;1544;48.834;9.194;2023-12-20T11:24:44;3.10;;;0.90;;
3066;SDS011;1544;48.834;9.194;2023-12-20T11:27:21;1.90;;;1.07;;
3066;SDS011;1544;48.834;9.194;2023-12-20T11:29:59;1.00;;;0.90;;
3066;SDS011;1544;48.834;9.194;2023-12-20T11:32:36;2.03;;;1.00;;
3066;SDS011;1544;48.834;9.194;2023-12-20T11:37:49;1.87;;;0.80;;
3066;SDS011;1544;48.834;9.194;2023-12-20T11:40:26;2.20;;;1.10;;
3066;SDS011;1544;48.834;9.194;2023-12-20T11:43:02;4.53;;;1.20;;
3066;SDS011;1544;48.834;9.194;2023-12-20T11:45:48;2.70;;;1.20;;
3066;SDS011;1544;48.834;9.194;2023-12-20T11:48:26;3.23;;;1.10;;
3066;SDS011;1544;48.834;9.194;2023-12-20T11:51:08;1.40;;;1.10;;
3066;SDS011;1544;48.834;9.194;2023-12-20T11:53:52;2.23;;;0.97;;
3066;SDS011;1544;48.834;9.194;2023-12-20T11:56:28;3.67;;;1.17;;
3066;SDS011;1544;48.834;9.194;2023-12-20T11:59:04;4.67;;;2.17;;
3066;SDS011;1544;48.834;9.194;2023-12-20T12:01:58;2.63;;;1.20;;
3066;SDS011;1544;48.834;9.194;2023-12-20T12:04:37;5.00;;;1.87;;
3066;SDS011;1544;48.834;9.194;2023-12-20T12:07:13;1.10;;;1.00;;
3066;SDS011;1544;48.834;9.194;2023-12-20T12:09:49;1.80;;;1.10;;
3066;SDS011;1544;48.834;9.194;2023-12-20T12:12:25;4.80;;;1.47;;
3066;SDS011;1544;48.834;9.194;2023-12-20T12:15:02;3.73;;;1.30;;
3066;SDS011;1544;48.834;9.194;2023-12-20T12:17:39;1.73;;;1.10;;
3066;SDS011;1544;48.834;9.194;2023-12-20T12:20:15;4.93;;;1.07;;
3066;SDS011;1544;48.834;9.194;2023-12-20T12:22:59;1.57;;;1.20;;
3066;SDS011;1544;48.834;9.194;2023-12-20T12:25:36;1.90;;;0.90;;
3066;SDS011;1544;48.834;9.194;2023-12-20T12:28:17;3.17;;;1.03;;
3066;SDS011;1544;48.834;9.194;2023-12-20T12:30:57;6.57;;;1.20;;
3066;SDS011;1544;48.834;9.194;2023-12-20T12:33:36;4.10;;;1.07;;
3066;SDS011;1544;48.834;9.194;2023-12-20T12:36:13;4.33;;;1.10;;
3066;SDS011;1544;48.834;9.194;2023-12-20T12:38:52;1.33;;;0.90;;
3066;SDS011;1544;48.834;9.194;2023-12-20T12:41:28;10.50;;;1.13;;
3066;SDS011;1544;48.834;9.194;2023-12-20T12:44:05;2.93;;;1.23;;
3066;SDS011;1544;48.834;9.194;2023-12-20T12:46:52;1.20;;;1.10;;
3066;SDS011;1544;48.834;9.194;2023-12-20T12:49:28;2.40;;;1.10;;
3066;SDS011;1544;48.834;9.194;2023-12-20T12:52:05;3.27;;;1.00;;
3066;SDS011;1544;48.834;9.194;2023-12-20T12:54:42;2.00;;;1.00;;
3066;SDS011;1544;48.834;9.194;2023-12-20T12:57:20;4.63;;;1.40;;
3066;SDS011;1544;48.834;9.194;2023-12-20T12:59:56;1.60;;;0.93;;
3066;SDS011;1544;48.834;9.194;2023-12-20T13:02:34;2.23;;;0.90;;
3066;SDS011;1544;48.834;9.194;2023-12-20T13:05:10;3.53;;;1.40;;
3066;SDS011;1544;48.834;9.194;2023-12-20T13:07:47;2.07;;;0.90;;
3066;SDS011;1544;48.834;9.194;2023-12-20T13:10:23;1.90;;;1.00;;
3066;SDS011;1544;48.834;9.194;2023-12-20T13:12:59;1.90;;;1.03;;
3066;SDS011;1544;48.834;9.194;2023-12-20T13:15:35;1.77;;;1.00;;
3066;SDS011;1544;48.834;9.194;2023-12-20T13:18:11;1.03;;;0.90;;
3066;SDS011;1544;48.834;9.194;2023-12-20T13:20:47;3.63;;;1.10;;
3066;SDS011;1544;48.834;9.194;2023-12-20T13:23:25;4.83;;;1.00;;
3066;SDS011;1544;48.834;9.194;2023-12-20T13:26:02;5.53;;;0.90;;
3066;SDS011;1544;48.834;9.194;2023-12-20T13:28:38;1.30;;;0.80;;
3066;SDS011;1544;48.834;9.194;2023-12-20T13:31:14;1.30;;;0.90;;
3066;SDS011;1544;48.834;9.194;2023-12-20T13:33:50;3.37;;;1.37;;
3066;SDS011;1544;48.834;9.194;2023-12-20T13:36:28;1.00;;;0.90;;
3066;SDS011;1544;48.834;9.194;2023-12-20T13:39:03;5.27;;;0.90;;
3066;SDS011;1544;48.834;9.194;2023-12-20T13:41:40;2.87;;;0.80;;
3066;SDS011;1544;48.834;9.194;2023-12-20T13:44:16;1.47;;;0.97;;
3066;SDS011;1544;48.834;9.194;2023-12-20T13:46:52;2.37;;;0.80;;
3066;SDS011;1544;48.834;9.194;2023-12-20T13:49:29;1.53;;;1.07;;
3066;SDS011;1544;48.834;9.194;2023-12-20T13:52:05;2.30;;;1.00;;
3066;SDS011;1544;48.834;9.194;2023-12-20T13:54:41;2.40;;;0.80;;
3066;SDS011;1544;48.834;9.194;2023-12-20T13:57:17;3.33;;;1.00;;
3066;SDS011;1544;48.834;9.194;2023-12-20T14:00:12;5.87;;;0.90;;
3066;SDS011;1544;48.834;9.194;2023-12-20T14:02:50;3.63;;;0.90;;
3066;SDS011;1544;48.834;9.194;2023-12-20T14:05:26;1.87;;;1.07;;
3066;SDS011;1544;48.834;9.194;2023-12-20T14:08:04;3.73;;;1.00;;
3066;SDS011;1544;48.834;9.194;2023-12-20T14:10:40;2.27;;;0.97;;
3066;SDS011;1544;48.834;9.194;2023-12-20T14:13:16;1.10;;;0.90;;
3066;SDS011;1544;48.834;9.194;2023-12-20T14:15:53;3.13;;;1.00;;
3066;SDS011;1544;48.834;9.194;2023-12-20T14:18:29;3.53;;;0.90;;
3066;SDS011;1544;48.834;9.194;2023-12-20T14:21:05;1.30;;;1.00;;
3066;SDS011;1544;48.834;9.194;2023-12-20T14:23:42;1.80;;;0.90;;
3066;SDS011;1544;48.834;9.194;2023-12-20T14:26:21;2.60;;;1.00;;
3066;SDS011;1544;48.834;9.194;2023-12-20T14:28:57;2.40;;;1.00;;
3066;SDS011;1544;48.834;9.194;2023-12-20T14:31:33;2.13;;;0.97;;
3066;SDS011;1544;48.834;9.194;2023-12-20T14:34:09;3.53;;;1.03;;
3066;SDS011;1544;48.834;9.194;2023-12-20T14:36:45;2.90;;;1.17;;
3066;SDS011;1544;48.834;9.194;2023-12-20T14:39:22;3.73;;;1.13;;
3066;SDS011;1544;48.834;9.194;2023-12-20T14:41:58;1.37;;;1.10;;
3066;SDS011;1544;48.834;9.194;2023-12-20T14:44:34;1.90;;;1.00;;
3066;SDS011;1544;48.834;9.194;2023-12-20T14:47:10;3.10;;;1.00;;
3066;SDS011;1544;48.834;9.194;2023-12-20T14:49:46;6.17;;;1.10;;
3066;SDS011;1544;48.834;9.194;2023-12-20T14:52:23;2.97;;;1.00;;
3066;SDS011;1544;48.834;9.194;2023-12-20T14:54:59;4.80;;;1.13;;
3066;SDS011;1544;48.834;9.194;2023-12-20T14:57:38;6.40;;;1.40;;
3066;SDS011;1544;48.834;9.194;2023-12-20T15:00:14;3.47;;;1.00;;
3066;SDS011;1544;48.834;9.194;2023-12-20T15:02:52;4.47;;;1.20;;
3066;SDS011;1544;48.834;9.194;2023-12-20T15:05:31;5.23;;;1.30;;
3066;SDS011;1544;48.834;9.194;2023-12-20T15:08:07;2.23;;;1.20;;
3066;SDS011;1544;48.834;9.194;2023-12-20T15:10:43;1.27;;;0.90;;
3066;SDS011;1544;48.834;9.194;2023-12-20T15:13:19;4.30;;;1.00;;
3066;SDS011;1544;48.834;9.194;2023-12-20T15:15:55;2.87;;;1.10;;
3066;SDS011;1544;48.834;9.194;2023-12-20T15:18:31;2.33;;;1.47;;
3066;SDS011;1544;48.834;9.194;2023-12-20T15:21:07;4.90;;;1.20;;
3066;SDS011;1544;48.834;9.194;2023-12-20T15:23:43;4.70;;;1.20;;
3066;SDS011;1544;48.834;9.194;2023-12-20T15:26:28;4.60;;;1.03;;
3066;SDS011;1544;48.834;9.194;2023-12-20T15:29:04;4.80;;;1.27;;
3066;SDS011;1544;48.834;9.194;2023-12-20T15:31:44;3.53;;;0.87;;
3066;SDS011;1544;48.834;9.194;2023-12-20T15:34:22;2.33;;;0.97;;
3066;SDS011;1544;48.834;9.194;2023-12-20T15:36:58;5.37;;;1.07;;
3066;SDS011;1544;48.834;9.194;2023-12-20T15:39:34;3.10;;;0.93;;
3066;SDS011;1544;48.834;9.194;2023-12-20T15:42:10;2.10;;;1.73;;
3066;SDS011;1544;48.834;9.194;2023-12-20T15:44:46;1.73;;;0.90;;
3066;SDS011;1544;48.834;9.194;2023-12-20T15:47:22;1.90;;;1.10;;
3066;SDS011;1544;48.834;9.194;2023-12-20T15:49:58;2.60;;;1.00;;
3066;SDS011;1544;48.834;9.194;2023-12-20T15:52:35;2.10;;;0.80;;
3066;SDS011;1544;48.834;9.194;2023-12-20T15:55:12;2.13;;;1.10;;
3066;SDS011;1544;48.834;9.194;2023-12-20T15:57:48;1.37;;;1.03;;
3066;SDS011;1544;48.834;9.194;2023-12-20T16:00:29;1.40;;;1.00;;
3066;SDS011;1544;48.834;9.194;2023-12-20T16:03:06;1.97;;;0.90;;
3066;SDS011;1544;48.834;9.194;2023-12-20T16:05:58;1.30;;;1.07;;
3066;SDS011;1544;48.834;9.194;2023-12-20T16:08:34;2.13;;;0.90;;
3066;SDS011;1544;48.834;9.194;2023-12-20T16:11:10;1.00;;;0.87;;
3066;SDS011;1544;48.834;9.194;2023-12-20T16:13:47;1.20;;;0.83;;
3066;SDS011;1544;48.834;9.194;2023-12-20T16:16:23;2.60;;;1.17;;
3066;SDS011;1544;48.834;9.194;2023-12-20T16:18:59;1.00;;;0.90;;
3066;SDS011;1544;48.834;9.194;2023-12-20T16:21:35;1.80;;;0.80;;